RYR576P EGSS-EINN
Flight info
| Callsign | RYR576P |
|---|---|
| Flight time | N/A |
| Altitude | 34000 |
| Route | NUGBO M183 SILVA P86 DIDZA N14 OKSAW DCT BIBPE DCT FELCA DCT OFSOX DCT SLANY DCT TIPUR |
| Aircraft | B38M/M-SDE1FGHILORVWXY/HB1 |
Departure
| Time | 2026-05-01 14:41 |
|---|---|
| Airport | London Stansted Airport (EGSS) |
Arrival
| Time | N/A |
|---|---|
| Airport | Shannon Airport (EINN) |
| Time | Latitude | Longitude | Altitude | Speed | Heading |
|---|---|---|---|---|---|
| 2026-05-01 14:11 | 51.89393 | 0.25946 | 355 ft | 0 kts | 223° |
| 2026-05-01 14:30 | 51.89418 | 0.25983 | 364 ft | 3 kts | 223° |
| 2026-05-01 14:30 | 51.89432 | 0.26007 | 362 ft | 4 kts | 249° |
| 2026-05-01 14:30 | 51.89428 | 0.26036 | 359 ft | 3 kts | 313° |
| 2026-05-01 14:31 | 51.89415 | 0.26060 | 362 ft | 0 kts | 313° |
| 2026-05-01 14:33 | 51.89422 | 0.26048 | 359 ft | 3 kts | 313° |
| 2026-05-01 14:34 | 51.89444 | 0.26008 | 370 ft | 6 kts | 313° |
| 2026-05-01 14:34 | 51.89482 | 0.25942 | 358 ft | 10 kts | 313° |
| 2026-05-01 14:34 | 51.89525 | 0.25852 | 356 ft | 11 kts | 283° |
| 2026-05-01 14:34 | 51.89487 | 0.25745 | 358 ft | 13 kts | 223° |
| 2026-05-01 14:35 | 51.89415 | 0.25636 | 358 ft | 16 kts | 223° |
| 2026-05-01 14:35 | 51.89328 | 0.25507 | 355 ft | 18 kts | 223° |
| 2026-05-01 14:35 | 51.89229 | 0.25360 | 358 ft | 20 kts | 223° |
| 2026-05-01 14:35 | 51.89120 | 0.25194 | 355 ft | 23 kts | 223° |
| 2026-05-01 14:36 | 51.88999 | 0.25012 | 360 ft | 25 kts | 223° |
| 2026-05-01 14:36 | 51.88868 | 0.24816 | 358 ft | 27 kts | 224° |
| 2026-05-01 14:36 | 51.88727 | 0.24604 | 356 ft | 30 kts | 223° |
| 2026-05-01 14:36 | 51.88568 | 0.24368 | 348 ft | 32 kts | 223° |
| 2026-05-01 14:37 | 51.88414 | 0.24133 | 352 ft | 31 kts | 223° |
| 2026-05-01 14:37 | 51.88252 | 0.23891 | 351 ft | 32 kts | 224° |
| 2026-05-01 14:37 | 51.88101 | 0.23665 | 344 ft | 31 kts | 223° |
| 2026-05-01 14:37 | 51.87942 | 0.23426 | 347 ft | 32 kts | 222° |
| 2026-05-01 14:38 | 51.87798 | 0.23210 | 343 ft | 21 kts | 223° |
| 2026-05-01 14:38 | 51.87730 | 0.23059 | 343 ft | 16 kts | 279° |
| 2026-05-01 14:38 | 51.87783 | 0.22933 | 348 ft | 13 kts | 281° |
| 2026-05-01 14:38 | 51.87728 | 0.22808 | 340 ft | 16 kts | 223° |
| 2026-05-01 14:39 | 51.87638 | 0.22670 | 338 ft | 19 kts | 223° |
| 2026-05-01 14:39 | 51.87526 | 0.22502 | 332 ft | 24 kts | 223° |
| 2026-05-01 14:39 | 51.87424 | 0.22349 | 331 ft | 15 kts | 226° |
| 2026-05-01 14:39 | 51.87406 | 0.22212 | 326 ft | 11 kts | 289° |
| 2026-05-01 14:40 | 51.87437 | 0.22143 | 326 ft | 5 kts | 314° |
| 2026-05-01 14:40 | 51.87476 | 0.22078 | 322 ft | 11 kts | 314° |
| 2026-05-01 14:40 | 51.87522 | 0.22032 | 322 ft | 8 kts | 10° |
| 2026-05-01 14:40 | 51.87571 | 0.22089 | 326 ft | 10 kts | 42° |
| 2026-05-01 14:41 | 51.87674 | 0.22242 | 328 ft | 49 kts | 43° |
| 2026-05-01 14:41 | 51.88139 | 0.22936 | 335 ft | 131 kts | 43° |
| 2026-05-01 14:41 | 51.88950 | 0.24167 | 520 ft | 178 kts | 47° |
| 2026-05-01 14:41 | 51.89921 | 0.25671 | 1020 ft | 197 kts | 47° |
| 2026-05-01 14:42 | 51.90923 | 0.27208 | 1848 ft | 199 kts | 46° |
| 2026-05-01 14:42 | 51.91355 | 0.27861 | 2135 ft | 206 kts | 46° |
| 2026-05-01 14:42 | 51.92503 | 0.29282 | 2640 ft | 235 kts | 27° |
| 2026-05-01 14:43 | 51.94810 | 0.29624 | 3448 ft | 274 kts | 341° |
| 2026-05-01 14:43 | 51.96320 | 0.27884 | 4559 ft | 266 kts | 302° |
| 2026-05-01 14:43 | 51.96954 | 0.25119 | 5645 ft | 264 kts | 272° |
| 2026-05-01 14:43 | 51.97058 | 0.23140 | 6403 ft | 268 kts | 274° |
| 2026-05-01 14:44 | 51.97398 | 0.20148 | 7500 ft | 273 kts | 276° |
| 2026-05-01 14:44 | 51.98118 | 0.13926 | 9570 ft | 284 kts | 276° |
| 2026-05-01 14:44 | 51.98476 | 0.10722 | 10515 ft | 292 kts | 276° |
| 2026-05-01 14:45 | 51.98827 | 0.07441 | 11374 ft | 300 kts | 272° |
| 2026-05-01 14:45 | 51.98240 | 0.00609 | 12801 ft | 317 kts | 254° |
| 2026-05-01 14:45 | 51.97797 | -0.02912 | 13819 ft | 320 kts | 254° |
| 2026-05-01 14:46 | 51.97340 | -0.06480 | 14671 ft | 325 kts | 253° |
| 2026-05-01 14:46 | 51.96406 | -0.13700 | 16388 ft | 333 kts | 253° |
| 2026-05-01 14:46 | 51.95924 | -0.17405 | 17224 ft | 338 kts | 253° |
| 2026-05-01 14:47 | 51.95437 | -0.21133 | 18139 ft | 340 kts | 253° |
| 2026-05-01 14:47 | 51.94941 | -0.24921 | 18844 ft | 345 kts | 253° |
| 2026-05-01 14:47 | 51.94439 | -0.28748 | 19557 ft | 348 kts | 253° |
| 2026-05-01 14:48 | 51.93420 | -0.36472 | 20931 ft | 355 kts | 253° |
| 2026-05-01 14:48 | 51.92899 | -0.40410 | 21583 ft | 359 kts | 253° |
| 2026-05-01 14:48 | 51.91834 | -0.48420 | 22895 ft | 367 kts | 253° |
| 2026-05-01 14:49 | 51.90743 | -0.56577 | 24091 ft | 374 kts | 253° |
| 2026-05-01 14:49 | 51.89627 | -0.64881 | 25146 ft | 380 kts | 253° |
| 2026-05-01 14:50 | 51.88683 | -0.71862 | 26001 ft | 384 kts | 253° |
| 2026-05-01 14:50 | 51.87330 | -0.81817 | 27169 ft | 391 kts | 253° |
| 2026-05-01 14:51 | 51.86740 | -0.86136 | 27677 ft | 393 kts | 253° |
| 2026-05-01 14:51 | 51.85554 | -0.94786 | 28620 ft | 399 kts | 253° |
| 2026-05-01 14:52 | 51.83209 | -1.02718 | 29354 ft | 395 kts | 224° |
| 2026-05-01 14:52 | 51.81315 | -1.05952 | 29789 ft | 397 kts | 224° |
| 2026-05-01 14:52 | 51.77454 | -1.12435 | 30591 ft | 402 kts | 223° |
| 2026-05-01 14:53 | 51.75492 | -1.15662 | 31035 ft | 403 kts | 223° |
| 2026-05-01 14:53 | 51.73527 | -1.18873 | 31514 ft | 402 kts | 223° |
| 2026-05-01 14:53 | 51.71563 | -1.22070 | 31992 ft | 401 kts | 223° |
| 2026-05-01 14:53 | 51.69621 | -1.25223 | 32449 ft | 401 kts | 223° |
| 2026-05-01 14:54 | 51.67653 | -1.28415 | 32917 ft | 400 kts | 223° |
| 2026-05-01 14:54 | 51.65696 | -1.31606 | 33340 ft | 401 kts | 225° |
| 2026-05-01 14:54 | 51.64077 | -1.35302 | 33635 ft | 409 kts | 242° |
| 2026-05-01 14:54 | 51.63223 | -1.39706 | 33899 ft | 419 kts | 259° |
| 2026-05-01 14:55 | 51.63222 | -1.44437 | 34086 ft | 430 kts | 276° |
| 2026-05-01 14:55 | 51.64056 | -1.49101 | 34136 ft | 441 kts | 292° |
| 2026-05-01 14:55 | 51.65491 | -1.53526 | 34131 ft | 449 kts | 295° |
| 2026-05-01 14:56 | 51.68416 | -1.62482 | 34137 ft | 456 kts | 295° |
| 2026-05-01 14:56 | 51.70641 | -1.71893 | 34149 ft | 446 kts | 274° |
| 2026-05-01 14:57 | 51.71377 | -1.81877 | 34150 ft | 448 kts | 274° |
| 2026-05-01 14:57 | 51.72466 | -1.96876 | 34170 ft | 448 kts | 274° |
| 2026-05-01 14:58 | 51.73164 | -2.06779 | 34152 ft | 446 kts | 274° |
| 2026-05-01 14:58 | 51.73857 | -2.16738 | 34156 ft | 447 kts | 274° |
| 2026-05-01 14:59 | 51.74543 | -2.26718 | 34161 ft | 446 kts | 274° |
| 2026-05-01 14:59 | 51.75220 | -2.36694 | 34155 ft | 446 kts | 273° |
| 2026-05-01 15:00 | 51.76212 | -2.51560 | 34157 ft | 445 kts | 272° |
| 2026-05-01 15:01 | 51.76865 | -2.61500 | 34165 ft | 445 kts | 272° |
| 2026-05-01 15:01 | 51.77509 | -2.71435 | 34170 ft | 445 kts | 272° |
| 2026-05-01 15:02 | 51.78141 | -2.81321 | 34141 ft | 445 kts | 272° |
| 2026-05-01 15:02 | 51.78770 | -2.91270 | 34131 ft | 445 kts | 272° |
| 2026-05-01 15:03 | 51.79390 | -3.01233 | 34132 ft | 446 kts | 271° |
| 2026-05-01 15:03 | 51.80002 | -3.11213 | 34131 ft | 446 kts | 271° |
| 2026-05-01 15:04 | 51.80605 | -3.21171 | 34149 ft | 446 kts | 271° |
| 2026-05-01 15:04 | 51.81197 | -3.31100 | 34157 ft | 446 kts | 271° |
| 2026-05-01 15:05 | 51.81786 | -3.41086 | 34203 ft | 446 kts | 271° |
| 2026-05-01 15:05 | 51.82369 | -3.51096 | 34186 ft | 448 kts | 270° |
| 2026-05-01 15:06 | 51.83469 | -3.61065 | 34189 ft | 452 kts | 277° |
| 2026-05-01 15:06 | 51.84744 | -3.70956 | 34186 ft | 452 kts | 277° |
| 2026-05-01 15:07 | 51.86024 | -3.80908 | 34181 ft | 452 kts | 277° |
| 2026-05-01 15:07 | 51.87298 | -3.90877 | 34218 ft | 452 kts | 276° |
| 2026-05-01 15:08 | 51.88566 | -4.00869 | 34188 ft | 453 kts | 276° |
| 2026-05-01 15:08 | 51.89825 | -4.10868 | 34187 ft | 453 kts | 276° |
| 2026-05-01 15:09 | 51.91077 | -4.20883 | 34191 ft | 453 kts | 276° |
| 2026-05-01 15:09 | 51.92319 | -4.30887 | 34175 ft | 453 kts | 275° |
| 2026-05-01 15:10 | 51.93545 | -4.40842 | 34205 ft | 453 kts | 275° |
| 2026-05-01 15:10 | 51.95385 | -4.55922 | 34173 ft | 455 kts | 275° |
| 2026-05-01 15:11 | 51.97210 | -4.71042 | 34169 ft | 455 kts | 274° |
| 2026-05-01 15:12 | 51.98414 | -4.81125 | 34170 ft | 455 kts | 274° |
| 2026-05-01 15:12 | 52.00199 | -4.96199 | 34181 ft | 456 kts | 274° |
| 2026-05-01 15:14 | 52.03317 | -5.21513 | 34164 ft | 463 kts | 282° |
| 2026-05-01 15:14 | 52.06343 | -5.36441 | 34169 ft | 463 kts | 281° |
| 2026-05-01 15:15 | 52.10326 | -5.56304 | 34173 ft | 463 kts | 281° |
| 2026-05-01 15:16 | 52.14243 | -5.76016 | 34164 ft | 437 kts | 281° |
| 2026-05-01 15:17 | 52.16099 | -5.85400 | 32796 ft | 438 kts | 281° |
| 2026-05-01 15:18 | 52.18889 | -5.99386 | 31460 ft | 425 kts | 281° |
| 2026-05-01 15:18 | 52.19791 | -6.03937 | 31057 ft | 420 kts | 281° |
| 2026-05-01 15:19 | 52.22456 | -6.17434 | 29599 ft | 412 kts | 281° |
| 2026-05-01 15:19 | 52.24188 | -6.26255 | 28741 ft | 404 kts | 281° |
| 2026-05-01 15:19 | 52.25038 | -6.30603 | 28318 ft | 400 kts | 281° |
| 2026-05-01 15:20 | 52.26709 | -6.39173 | 27495 ft | 392 kts | 281° |
| 2026-05-01 15:20 | 52.27522 | -6.43357 | 27121 ft | 389 kts | 281° |
| 2026-05-01 15:20 | 52.28336 | -6.47559 | 26699 ft | 387 kts | 280° |
| 2026-05-01 15:21 | 52.29145 | -6.51741 | 26282 ft | 385 kts | 280° |
| 2026-05-01 15:21 | 52.29949 | -6.55903 | 25872 ft | 382 kts | 280° |
| 2026-05-01 15:21 | 52.30747 | -6.60046 | 25473 ft | 380 kts | 280° |
| 2026-05-01 15:21 | 52.31537 | -6.64160 | 25083 ft | 378 kts | 280° |
| 2026-05-01 15:22 | 52.33092 | -6.72278 | 24306 ft | 374 kts | 280° |
| 2026-05-01 15:22 | 52.33876 | -6.76383 | 23917 ft | 373 kts | 280° |
| 2026-05-01 15:22 | 52.34635 | -6.80365 | 23496 ft | 371 kts | 280° |
| 2026-05-01 15:23 | 52.35401 | -6.84390 | 23060 ft | 369 kts | 280° |
| 2026-05-01 15:23 | 52.36159 | -6.88385 | 22672 ft | 366 kts | 280° |
| 2026-05-01 15:23 | 52.36908 | -6.92341 | 22291 ft | 363 kts | 280° |
| 2026-05-01 15:23 | 52.37649 | -6.96262 | 21946 ft | 359 kts | 280° |
| 2026-05-01 15:24 | 52.38383 | -7.00157 | 21556 ft | 357 kts | 280° |
| 2026-05-01 15:24 | 52.39112 | -7.04031 | 21176 ft | 355 kts | 280° |
| 2026-05-01 15:24 | 52.39839 | -7.07902 | 20797 ft | 353 kts | 280° |
| 2026-05-01 15:24 | 52.40558 | -7.11741 | 20430 ft | 351 kts | 280° |
| 2026-05-01 15:25 | 52.41273 | -7.15562 | 20065 ft | 349 kts | 280° |
| 2026-05-01 15:25 | 52.41981 | -7.19358 | 19701 ft | 348 kts | 280° |
| 2026-05-01 15:25 | 52.42687 | -7.23145 | 19337 ft | 346 kts | 280° |
| 2026-05-01 15:25 | 52.43386 | -7.26910 | 18973 ft | 345 kts | 280° |
| 2026-05-01 15:26 | 52.44084 | -7.30668 | 18614 ft | 343 kts | 280° |
| 2026-05-01 15:26 | 52.44767 | -7.34363 | 18218 ft | 342 kts | 280° |
| 2026-05-01 15:26 | 52.45457 | -7.38094 | 17823 ft | 341 kts | 280° |
| 2026-05-01 15:26 | 52.46141 | -7.41806 | 17454 ft | 338 kts | 280° |
| 2026-05-01 15:27 | 52.46820 | -7.45492 | 17086 ft | 336 kts | 280° |
| 2026-05-01 15:27 | 52.47493 | -7.49157 | 16774 ft | 332 kts | 280° |
| 2026-05-01 15:27 | 52.48157 | -7.52779 | 16403 ft | 330 kts | 280° |
| 2026-05-01 15:28 | 52.49467 | -7.59950 | 15694 ft | 327 kts | 280° |
| 2026-05-01 15:28 | 52.50109 | -7.63477 | 15344 ft | 325 kts | 280° |
| 2026-05-01 15:28 | 52.50754 | -7.67022 | 15017 ft | 322 kts | 280° |
| 2026-05-01 15:29 | 52.52028 | -7.74047 | 14318 ft | 319 kts | 280° |
| 2026-05-01 15:29 | 52.52659 | -7.77539 | 13981 ft | 318 kts | 280° |
| 2026-05-01 15:29 | 52.53912 | -7.84486 | 13231 ft | 316 kts | 280° |
| 2026-05-01 15:30 | 52.54937 | -7.90190 | 12677 ft | 311 kts | 280° |
| 2026-05-01 15:31 | 52.57529 | -8.04668 | 11279 ft | 300 kts | 281° |
| 2026-05-01 15:31 | 52.58510 | -8.10177 | 10724 ft | 298 kts | 282° |
| 2026-05-01 15:32 | 52.60865 | -8.15746 | 10026 ft | 307 kts | 311° |
| 2026-05-01 15:32 | 52.63778 | -8.20534 | 9324 ft | 284 kts | 311° |
| 2026-05-01 15:33 | 52.67809 | -8.27208 | 8417 ft | 269 kts | 311° |
| 2026-05-01 15:34 | 52.71731 | -8.33715 | 7557 ft | 264 kts | 311° |